createdAt,value
2018-06-27T00:01:23.271Z,85.90
2018-06-27T00:03:54.052Z,85.69
2018-06-27T00:06:24.968Z,85.72
2018-06-27T00:08:56.262Z,85.17
2018-06-27T00:11:26.902Z,85.41
2018-06-27T00:13:58.242Z,85.55
2018-06-27T00:16:28.864Z,85.26
2018-06-27T00:18:59.275Z,85.39
2018-06-27T00:21:29.945Z,85.17
2018-06-27T00:24:01.143Z,85.33
2018-06-27T00:26:34.738Z,85.51
2018-06-27T00:29:09.564Z,85.80
2018-06-27T00:31:39.460Z,85.63
2018-06-27T00:34:09.494Z,85.51
2018-06-27T00:36:39.502Z,85.47
2018-06-27T00:39:10.858Z,85.45
2018-06-27T00:41:40.833Z,85.19
2018-06-27T00:44:10.940Z,85.03
2018-06-27T00:46:40.772Z,85.32
2018-06-27T00:49:11.341Z,85.04
2018-06-27T00:51:41.274Z,85.10
2018-06-27T00:54:12.328Z,85.04
2018-06-27T00:56:43.089Z,84.97
2018-06-27T00:59:13.943Z,85.11
2018-06-27T01:01:44.890Z,85.20
2018-06-27T01:04:15.232Z,85.56
2018-06-27T01:06:45.888Z,85.08
2018-06-27T01:09:18.212Z,85.06
2018-06-27T01:11:48.178Z,84.91
2018-06-27T01:14:18.967Z,84.82
2018-06-27T01:16:49.932Z,84.67
2018-06-27T01:19:20.976Z,84.80
2018-06-27T01:21:52.131Z,84.63
2018-06-27T01:24:23.193Z,84.52
2018-06-27T01:26:53.855Z,84.81
2018-06-27T01:29:25.331Z,84.16
2018-06-27T01:31:55.362Z,84.20
2018-06-27T01:34:25.985Z,84.11
2018-06-27T01:36:56.911Z,84.24
2018-06-27T01:39:28.286Z,84.34
2018-06-27T01:41:58.947Z,84.20
2018-06-27T01:44:29.984Z,83.94
2018-06-27T01:47:00.933Z,84.09
2018-06-27T01:49:31.946Z,84.03
2018-06-27T01:52:02.914Z,83.95
2018-06-27T01:54:33.882Z,83.72
2018-06-27T01:57:05.291Z,84.01
2018-06-27T01:59:36.023Z,83.65
2018-06-27T02:02:06.917Z,83.59
2018-06-27T02:04:38.340Z,83.56
2018-06-27T02:07:10.586Z,83.48
2018-06-27T02:09:40.537Z,83.59
2018-06-27T02:12:11.109Z,83.59
2018-06-27T02:14:55.280Z,83.62
2018-06-27T02:17:25.185Z,83.55
2018-06-27T02:19:55.103Z,83.74
2018-06-27T02:22:24.974Z,83.60
2018-06-27T02:24:54.878Z,83.71
2018-06-27T02:27:24.742Z,83.37
2018-06-27T02:29:54.693Z,83.39
2018-06-27T02:32:24.595Z,83.19
2018-06-27T02:34:54.622Z,83.19
2018-06-27T02:37:24.520Z,83.37
2018-06-27T02:39:54.535Z,83.10
2018-06-27T02:42:24.457Z,83.04
2018-06-27T02:44:54.445Z,83.04
2018-06-27T02:47:24.290Z,82.86
2018-06-27T02:49:54.988Z,83.22
2018-06-27T02:52:24.981Z,83.51
2018-06-27T02:54:54.937Z,83.77
2018-06-27T02:57:26.828Z,83.43
2018-06-27T02:59:57.566Z,83.63
2018-06-27T03:02:28.157Z,83.64
2018-06-27T03:04:59.240Z,83.67
2018-06-27T03:07:29.977Z,83.74
2018-06-27T03:10:00.927Z,83.23
2018-06-27T03:12:32.282Z,83.16
2018-06-27T03:15:02.841Z,83.27
2018-06-27T03:17:33.110Z,83.17
2018-06-27T03:20:04.059Z,83.04
2018-06-27T03:22:34.053Z,83.16
2018-06-27T03:25:05.415Z,83.04
2018-06-27T03:27:35.958Z,83.28
2018-06-27T03:30:07.599Z,83.23
2018-06-27T03:32:38.541Z,83.46
2018-06-27T03:35:09.210Z,83.50
2018-06-27T03:37:39.857Z,83.57
2018-06-27T03:40:11.335Z,83.59
2018-06-27T03:42:41.886Z,83.30
2018-06-27T03:45:12.273Z,83.29
2018-06-27T03:47:42.961Z,83.42
2018-06-27T03:50:14.021Z,83.50
2018-06-27T03:52:48.360Z,83.46
2018-06-27T03:55:18.234Z,83.49
2018-06-27T03:57:48.670Z,83.61
2018-06-27T04:00:18.615Z,83.70
2018-06-27T04:02:49.207Z,83.67
2018-06-27T04:05:20.003Z,83.80
2018-06-27T04:07:50.911Z,84.15
2018-06-27T04:10:28.039Z,84.21
2018-06-27T04:12:58.097Z,84.34
2018-06-27T04:15:33.067Z,84.44
2018-06-27T04:18:02.900Z,84.89
2018-06-27T04:20:32.825Z,84.48
2018-06-27T04:23:14.411Z,84.48
2018-06-27T04:25:44.588Z,84.81
2018-06-27T04:28:14.707Z,85.77
2018-06-27T04:30:44.633Z,85.63
2018-06-27T04:33:14.450Z,86.09
2018-06-27T04:35:44.937Z,85.40
2018-06-27T04:38:14.753Z,86.23
2018-06-27T04:40:44.772Z,86.59
2018-06-27T04:43:14.788Z,86.13
2018-06-27T04:45:44.893Z,85.92
2018-06-27T04:48:14.717Z,86.19
2018-06-27T04:50:44.699Z,89.21
2018-06-27T04:53:14.662Z,90.25
2018-06-27T04:55:44.649Z,90.16
2018-06-27T04:58:14.997Z,90.38
2018-06-27T05:00:44.922Z,90.13
2018-06-27T05:03:14.768Z,89.07
2018-06-27T05:05:45.203Z,89.18
2018-06-27T05:08:15.047Z,90.59
2018-06-27T05:10:44.932Z,90.87
2018-06-27T05:13:15.197Z,90.67
2018-06-27T05:15:45.985Z,91.37
2018-06-27T05:18:16.107Z,91.23
2018-06-27T05:20:46.895Z,91.73
2018-06-27T05:23:18.276Z,90.65
2018-06-27T05:25:49.035Z,89.43
2018-06-27T05:28:20.009Z,89.11
2018-06-27T05:30:51.356Z,90.13
2018-06-27T05:33:22.244Z,89.32
2018-06-27T05:35:52.955Z,90.95
2018-06-27T05:38:23.965Z,90.90
2018-06-27T05:40:54.954Z,90.19
2018-06-27T05:43:25.977Z,90.65
2018-06-27T05:45:57.257Z,89.49
2018-06-27T05:48:27.159Z,88.34
2018-06-27T05:50:57.893Z,88.71
2018-06-27T05:53:29.284Z,89.94
2018-06-27T05:55:59.938Z,88.58
2018-06-27T05:58:31.281Z,88.24
2018-06-27T06:01:01.998Z,89.36
2018-06-27T06:03:33.276Z,88.72
2018-06-27T06:06:04.026Z,87.69
2018-06-27T06:08:34.984Z,86.18
2018-06-27T06:11:04.846Z,84.22
2018-06-27T06:13:36.291Z,84.13
2018-06-27T06:16:07.090Z,82.62
2018-06-27T06:18:38.456Z,83.01
2018-06-27T06:21:09.167Z,81.50
2018-06-27T06:23:39.094Z,82.15
2018-06-27T06:26:09.943Z,81.79
2018-06-27T06:28:41.270Z,81.93
2018-06-27T06:31:12.134Z,81.12
2018-06-27T06:33:43.715Z,80.91
2018-06-27T06:36:14.310Z,80.57
2018-06-27T06:38:44.971Z,80.36
2018-06-27T06:41:15.941Z,80.04
2018-06-27T06:43:47.467Z,80.54
2018-06-27T06:46:18.014Z,80.94
2018-06-27T06:48:49.436Z,80.23
2018-06-27T06:51:20.050Z,78.84
2018-06-27T06:53:51.049Z,78.98
2018-06-27T06:56:22.082Z,79.23
2018-06-27T06:58:52.933Z,77.57
2018-06-27T07:01:24.216Z,78.21
2018-06-27T07:03:55.738Z,77.16
2018-06-27T07:06:25.567Z,77.69
2018-06-27T07:08:56.129Z,77.43
2018-06-27T07:11:26.942Z,75.73
2018-06-27T07:13:58.226Z,75.44
2018-06-27T07:16:29.315Z,73.75
2018-06-27T07:19:00.050Z,74.25
2018-06-27T07:21:31.353Z,73.94
2018-06-27T07:24:02.040Z,73.93
2018-06-27T07:26:33.062Z,73.51
2018-06-27T07:29:04.532Z,73.17
2018-06-27T07:31:34.411Z,72.59
2018-06-27T07:34:05.090Z,72.55
2018-06-27T07:36:36.241Z,72.74
2018-06-27T07:39:11.041Z,72.37
2018-06-27T07:41:40.985Z,72.83
2018-06-27T07:44:10.832Z,71.79
2018-06-27T07:46:41.855Z,72.71
2018-06-27T07:49:11.942Z,71.33
2018-06-27T07:51:42.597Z,70.25
2018-06-27T07:54:13.217Z,71.60
2018-06-27T07:56:44.066Z,71.87
2018-06-27T07:59:15.143Z,71.63
2018-06-27T08:01:45.994Z,70.99
2018-06-27T08:04:17.292Z,71.98
2018-06-27T08:06:48.299Z,71.36
2018-06-27T08:09:18.971Z,71.73
2018-06-27T08:11:49.988Z,70.82
2018-06-27T08:14:21.167Z,71.52
2018-06-27T08:16:52.307Z,70.62
2018-06-27T08:19:23.038Z,71.24
2018-06-27T08:21:53.991Z,71.25
2018-06-27T08:24:23.887Z,70.74
2018-06-27T08:26:55.372Z,70.65
2018-06-27T08:29:26.047Z,68.91
2018-06-27T08:31:56.677Z,68.85
2018-06-27T08:34:27.322Z,68.84
2018-06-27T08:36:57.995Z,67.79
2018-06-27T08:39:28.963Z,67.82
2018-06-27T08:42:00.187Z,66.40
2018-06-27T08:44:31.167Z,65.55
2018-06-27T08:47:01.960Z,64.88
2018-06-27T08:49:32.958Z,62.98
2018-06-27T08:52:03.965Z,64.61
2018-06-27T08:54:38.954Z,64.50
2018-06-27T08:57:08.971Z,63.95
2018-06-27T08:59:39.009Z,61.46
2018-06-27T09:02:09.035Z,61.10
2018-06-27T09:04:39.095Z,61.43
2018-06-27T09:07:09.702Z,61.60
2018-06-27T09:09:40.935Z,59.97
2018-06-27T09:12:10.930Z,61.19
2018-06-27T09:14:41.999Z,60.56
2018-06-27T09:17:13.034Z,60.12
2018-06-27T09:19:44.046Z,58.86
2018-06-27T09:22:15.384Z,59.23
2018-06-27T09:24:46.014Z,56.19
2018-06-27T09:27:15.872Z,57.88
2018-06-27T09:29:47.275Z,57.22
2018-06-27T09:32:17.841Z,56.29
2018-06-27T09:34:49.232Z,57.19
2018-06-27T09:37:19.882Z,58.18
2018-06-27T09:39:51.303Z,55.66
2018-06-27T09:42:21.942Z,57.30
2018-06-27T09:44:53.030Z,57.65
2018-06-27T09:47:23.868Z,56.80
2018-06-27T09:49:54.278Z,56.88
2018-06-27T09:52:24.903Z,56.32
2018-06-27T09:54:57.230Z,54.96
2018-06-27T09:57:27.214Z,53.60
2018-06-27T09:59:58.830Z,51.71
2018-06-27T10:02:29.572Z,52.08
2018-06-27T10:05:00.123Z,51.81
2018-06-27T10:07:30.892Z,52.18
2018-06-27T10:10:01.895Z,50.96
2018-06-27T10:12:32.545Z,52.15
2018-06-27T10:15:03.234Z,51.85
2018-06-27T10:17:34.011Z,55.56
2018-06-27T10:20:05.111Z,53.18
2018-06-27T10:22:35.925Z,53.19
2018-06-27T10:25:06.160Z,53.52
2018-06-27T10:27:36.933Z,52.24
2018-06-27T10:30:08.145Z,53.31
2018-06-27T10:32:39.041Z,53.67
2018-06-27T10:35:10.157Z,54.78
2018-06-27T10:37:40.148Z,53.49
2018-06-27T10:40:11.070Z,54.22
2018-06-27T10:42:41.872Z,53.22
2018-06-27T10:45:13.401Z,52.83
2018-06-27T10:47:43.989Z,52.61
2018-06-27T10:50:13.898Z,52.26
2018-06-27T10:52:45.291Z,51.85
2018-06-27T10:55:19.974Z,52.77
2018-06-27T10:57:50.104Z,50.38
2018-06-27T11:00:20.074Z,52.23
2018-06-27T11:02:49.941Z,51.51
2018-06-27T11:05:19.954Z,52.63
2018-06-27T11:07:50.693Z,52.54
2018-06-27T11:10:21.410Z,53.68
2018-06-27T11:12:52.018Z,52.87
2018-06-27T11:15:22.955Z,52.28
2018-06-27T11:17:54.102Z,52.32
2018-06-27T11:20:25.026Z,52.03
2018-06-27T11:22:56.066Z,49.48
2018-06-27T11:25:27.226Z,50.40
2018-06-27T11:27:57.967Z,51.08
2018-06-27T11:30:28.978Z,50.70
2018-06-27T11:32:59.888Z,49.82
2018-06-27T11:35:31.346Z,49.08
2018-06-27T11:38:02.001Z,49.71
2018-06-27T11:40:33.157Z,47.73
2018-06-27T11:43:04.030Z,48.50
2018-06-27T11:45:35.051Z,50.21
2018-06-27T11:48:06.138Z,50.55
2018-06-27T11:50:37.116Z,51.21
2018-06-27T11:53:07.934Z,50.75
2018-06-27T11:55:38.930Z,49.76
2018-06-27T11:58:10.379Z,50.72
2018-06-27T12:00:42.066Z,51.64
2018-06-27T12:03:12.003Z,51.57
2018-06-27T12:05:45.932Z,50.56
2018-06-27T12:08:16.043Z,49.94
2018-06-27T12:10:46.046Z,49.94
2018-06-27T12:13:16.571Z,50.33
2018-06-27T12:15:47.070Z,50.63
2018-06-27T12:18:17.020Z,50.84
2018-06-27T12:20:47.992Z,50.07
2018-06-27T12:23:19.267Z,51.10
2018-06-27T12:25:49.978Z,50.65
2018-06-27T12:28:21.019Z,50.50
2018-06-27T12:30:52.154Z,50.47
2018-06-27T12:33:22.964Z,49.75
2018-06-27T12:35:54.049Z,50.07
2018-06-27T12:38:24.934Z,47.74
2018-06-27T12:40:56.077Z,47.06
2018-06-27T12:43:27.024Z,45.64
2018-06-27T12:45:58.225Z,45.14
2018-06-27T12:48:29.042Z,46.75
2018-06-27T12:50:58.915Z,47.56
2018-06-27T12:53:30.398Z,47.87
2018-06-27T12:56:01.111Z,47.74
2018-06-27T12:58:32.262Z,46.90
2018-06-27T13:01:02.938Z,44.93
2018-06-27T13:03:34.340Z,44.05
2018-06-27T13:06:05.038Z,42.11
2018-06-27T13:08:35.899Z,44.18
2018-06-27T13:11:07.350Z,44.43
2018-06-27T13:13:38.013Z,45.29
2018-06-27T13:16:08.996Z,45.97
2018-06-27T13:18:40.038Z,46.03
2018-06-27T13:21:11.016Z,46.44
2018-06-27T13:23:41.965Z,46.53
2018-06-27T13:26:13.204Z,46.87
2018-06-27T13:28:43.975Z,47.05
2018-06-27T13:31:14.535Z,47.59
2018-06-27T13:33:45.106Z,48.27
2018-06-27T13:36:15.973Z,47.95
2018-06-27T13:38:47.011Z,46.83
2018-06-27T13:41:17.902Z,46.92
2018-06-27T13:43:48.546Z,45.29
2018-06-27T13:46:19.258Z,44.84
2018-06-27T13:48:49.939Z,46.17
2018-06-27T13:51:21.343Z,45.60
2018-06-27T13:53:52.034Z,45.86
2018-06-27T13:56:21.955Z,46.40
2018-06-27T13:58:52.921Z,46.40
2018-06-27T14:01:24.010Z,46.65
2018-06-27T14:03:55.010Z,46.46
2018-06-27T14:06:26.067Z,46.72
2018-06-27T14:08:56.966Z,47.16
2018-06-27T14:11:28.054Z,47.26
2018-06-27T14:13:58.890Z,47.22
2018-06-27T14:16:29.992Z,48.04
2018-06-27T14:19:01.003Z,48.45
2018-06-27T14:21:32.139Z,48.66
2018-06-27T14:24:02.144Z,48.23
2018-06-27T14:26:33.062Z,48.32
2018-06-27T14:29:04.040Z,48.73
2018-06-27T14:31:34.777Z,48.67
2018-06-27T14:34:05.491Z,48.28
2018-06-27T14:36:36.191Z,49.56
2018-06-27T14:39:09.482Z,49.22
2018-06-27T14:41:40.183Z,49.10
2018-06-27T14:44:10.734Z,49.32
2018-06-27T14:46:40.725Z,49.55
2018-06-27T14:49:11.289Z,49.55
2018-06-27T14:51:41.230Z,50.12
2018-06-27T14:54:12.039Z,50.44
2018-06-27T14:56:43.037Z,50.96
2018-06-27T14:59:14.160Z,52.24
2018-06-27T15:01:44.073Z,52.22
2018-06-27T15:04:14.938Z,52.38
2018-06-27T15:06:46.033Z,52.32
2018-06-27T15:09:16.953Z,51.86
2018-06-27T15:11:48.035Z,51.29
2018-06-27T15:14:19.102Z,51.25
2018-06-27T15:16:50.171Z,51.91
2018-06-27T15:19:20.972Z,51.66
2018-06-27T15:21:52.019Z,52.45
2018-06-27T15:24:22.967Z,52.00
2018-06-27T15:26:54.007Z,52.05
2018-06-27T15:29:24.929Z,52.30
2018-06-27T15:31:55.601Z,52.21
2018-06-27T15:34:26.187Z,52.23
2018-06-27T15:36:56.206Z,52.21
2018-06-27T15:39:27.123Z,51.89
2018-06-27T15:41:58.100Z,52.67
2018-06-27T15:44:28.986Z,52.70
2018-06-27T15:46:59.972Z,52.77
2018-06-27T15:49:31.019Z,52.78
2018-06-27T15:52:02.091Z,53.55
2018-06-27T15:54:33.778Z,53.64
2018-06-27T15:57:04.534Z,53.17
2018-06-27T15:59:35.183Z,52.30
2018-06-27T16:02:06.086Z,52.95
2018-06-27T16:04:37.050Z,52.60
2018-06-27T16:07:07.991Z,53.07
2018-06-27T16:09:39.423Z,53.37
2018-06-27T16:12:10.184Z,52.66
2018-06-27T16:14:41.053Z,53.02
2018-06-27T16:17:12.211Z,52.44
2018-06-27T16:19:43.155Z,53.17
2018-06-27T16:22:14.094Z,52.38
2018-06-27T16:24:45.117Z,52.80
2018-06-27T16:27:15.985Z,52.84
2018-06-27T16:29:47.073Z,52.97
2018-06-27T16:32:18.137Z,52.89
2018-06-27T16:34:49.214Z,53.60
2018-06-27T16:37:20.114Z,54.12
2018-06-27T16:39:50.883Z,54.06
2018-06-27T16:42:22.263Z,54.05
2018-06-27T16:44:53.029Z,54.74
2018-06-27T16:47:23.953Z,53.80
2018-06-27T16:49:55.292Z,54.03
2018-06-27T16:52:26.028Z,54.59
2018-06-27T16:54:56.962Z,55.00
2018-06-27T16:57:27.993Z,54.78
2018-06-27T16:59:58.944Z,55.48
2018-06-27T17:02:29.895Z,55.95
2018-06-27T17:05:01.245Z,55.97
2018-06-27T17:07:31.969Z,55.49
2018-06-27T17:10:03.002Z,55.59
2018-06-27T17:12:34.046Z,55.86
2018-06-27T17:15:05.013Z,56.07
2018-06-27T17:17:36.058Z,56.02
2018-06-27T17:20:07.271Z,56.55
2018-06-27T17:22:37.948Z,57.69
2018-06-27T17:25:09.334Z,56.79
2018-06-27T17:27:40.017Z,56.75
2018-06-27T17:30:10.922Z,57.28
2018-06-27T17:32:41.975Z,57.76
2018-06-27T17:35:13.071Z,58.24
2018-06-27T17:37:44.102Z,58.21
2018-06-27T17:40:14.965Z,57.97
2018-06-27T17:42:44.930Z,57.86
2018-06-27T17:45:15.917Z,58.14
2018-06-27T17:47:47.357Z,58.27
2018-06-27T17:50:17.982Z,58.75
2018-06-27T17:52:48.974Z,58.79
2018-06-27T17:55:20.328Z,58.73
2018-06-27T17:57:51.011Z,58.70
2018-06-27T18:00:21.979Z,58.79
2018-06-27T18:02:52.910Z,58.81
2018-06-27T18:05:24.247Z,58.87
2018-06-27T18:07:55.009Z,58.75
2018-06-27T18:10:25.964Z,58.93
2018-06-27T18:12:57.099Z,58.87
2018-06-27T18:15:27.965Z,59.12
2018-06-27T18:17:59.157Z,58.95
2018-06-27T18:20:29.019Z,59.03
2018-06-27T18:22:58.901Z,58.87
2018-06-27T18:25:30.254Z,58.81
2018-06-27T18:28:00.995Z,59.50
2018-06-27T18:30:32.027Z,60.29
2018-06-27T18:33:03.018Z,59.99
2018-06-27T18:35:34.438Z,60.63
2018-06-27T18:44:39.140Z,61.57
2018-06-27T18:47:09.035Z,61.31
2018-06-27T18:49:38.822Z,61.54
2018-06-27T18:52:08.926Z,61.24
2018-06-27T18:54:38.780Z,61.31
2018-06-27T18:57:08.717Z,61.22
2018-06-27T18:59:38.584Z,61.51
2018-06-27T19:02:08.702Z,61.82
2018-06-27T19:04:38.564Z,61.72
2018-06-27T19:07:08.576Z,62.21
2018-06-27T19:09:38.458Z,62.17
2018-06-27T19:12:08.701Z,62.43
2018-06-27T19:14:38.528Z,62.14
2018-06-27T19:17:08.760Z,62.70
2018-06-27T19:19:38.824Z,62.95
2018-06-27T19:22:08.795Z,62.74
2018-06-27T19:24:38.743Z,62.59
2018-06-27T19:27:08.602Z,62.33
2018-06-27T19:29:38.482Z,62.84
2018-06-27T19:32:08.543Z,62.46
2018-06-27T19:34:38.516Z,62.93
2018-06-27T19:37:09.764Z,62.65
2018-06-27T19:39:39.820Z,62.66
2018-06-27T19:42:09.790Z,62.94
2018-06-27T19:44:39.636Z,63.18
2018-06-27T19:47:09.586Z,64.32
2018-06-27T19:49:39.425Z,63.73
2018-06-27T19:52:09.548Z,63.65
2018-06-27T19:54:39.441Z,64.04
2018-06-27T19:57:09.552Z,63.78
2018-06-27T19:59:39.449Z,63.95
2018-06-27T20:02:09.637Z,63.63
2018-06-27T20:04:39.979Z,63.70
2018-06-27T20:07:09.883Z,64.16
2018-06-27T20:09:39.784Z,63.99
2018-06-27T20:12:09.902Z,64.65
2018-06-27T20:14:39.828Z,64.40
2018-06-27T20:17:09.932Z,64.93
2018-06-27T20:19:39.817Z,64.42
2018-06-27T20:22:09.968Z,64.56
2018-06-27T20:24:40.065Z,64.55
2018-06-27T20:27:09.957Z,64.35
2018-06-27T20:29:39.824Z,64.56
2018-06-27T20:32:10.102Z,64.62
2018-06-27T20:34:39.952Z,64.71
2018-06-27T20:37:09.800Z,65.46
2018-06-27T20:39:40.008Z,64.92
2018-06-27T20:42:09.854Z,64.94
2018-06-27T20:44:39.770Z,64.82
2018-06-27T20:47:09.670Z,65.34
2018-06-27T20:49:39.523Z,65.03
2018-06-27T20:52:09.550Z,65.06
2018-06-27T20:54:39.451Z,65.21
2018-06-27T20:57:09.498Z,65.78
2018-06-27T20:59:39.521Z,66.66
2018-06-27T21:02:09.613Z,66.03
2018-06-27T21:04:39.861Z,66.09
2018-06-27T21:07:09.861Z,66.00
2018-06-27T21:09:39.801Z,66.54
2018-06-27T21:12:09.672Z,66.65
2018-06-27T21:14:41.718Z,66.39
2018-06-27T21:17:11.771Z,67.00
2018-06-27T21:19:41.696Z,66.71
2018-06-27T21:22:11.530Z,66.65
2018-06-27T21:24:41.565Z,67.08
2018-06-27T21:27:11.385Z,66.86
2018-06-27T21:29:41.573Z,66.99
2018-06-27T21:32:11.439Z,67.27
2018-06-27T21:34:41.522Z,66.98
2018-06-27T21:37:11.429Z,67.07
2018-06-27T21:39:41.446Z,67.54
2018-06-27T21:42:11.409Z,68.12
2018-06-27T21:44:41.469Z,67.56
2018-06-27T21:47:11.513Z,67.84
2018-06-27T21:49:41.538Z,67.83
2018-06-27T21:52:11.478Z,67.76
2018-06-27T21:54:41.440Z,67.45
2018-06-27T21:57:11.467Z,68.58
2018-06-27T21:59:41.508Z,67.67
2018-06-27T22:02:11.536Z,68.66
2018-06-27T22:04:41.478Z,68.72
2018-06-27T22:07:11.388Z,68.02
2018-06-27T22:09:41.492Z,68.17
2018-06-27T22:12:11.868Z,67.71
2018-06-27T22:14:42.360Z,68.01
2018-06-27T22:17:12.637Z,69.04
2018-06-27T22:19:43.037Z,69.00
2018-06-27T22:22:13.211Z,69.54
2018-06-27T22:24:43.691Z,69.08
2018-06-27T22:27:13.599Z,68.61
2018-06-27T22:29:43.582Z,68.74
2018-06-27T22:32:13.433Z,68.32
2018-06-27T22:34:43.446Z,68.94
2018-06-27T22:37:13.397Z,68.61
2018-06-27T22:39:43.386Z,68.87
2018-06-27T22:42:13.732Z,68.90
2018-06-27T22:44:43.717Z,68.33
2018-06-27T22:47:13.637Z,68.79
2018-06-27T22:49:43.621Z,69.12
2018-06-27T22:52:13.571Z,69.24
2018-06-27T22:54:43.568Z,68.98
2018-06-27T22:57:13.850Z,69.02
2018-06-27T22:59:43.809Z,69.68
2018-06-27T23:02:13.677Z,69.87
2018-06-27T23:04:43.634Z,69.53
2018-06-27T23:07:14.494Z,70.60
2018-06-27T23:09:45.085Z,70.21
2018-06-27T23:12:15.918Z,70.21
2018-06-27T23:14:47.536Z,70.99
2018-06-27T23:17:18.466Z,71.70
2018-06-27T23:19:49.172Z,71.83
2018-06-27T23:22:30.206Z,71.78
2018-06-27T23:25:00.735Z,71.66
2018-06-27T23:27:30.721Z,72.09
2018-06-27T23:30:01.061Z,72.17
2018-06-27T23:32:30.922Z,71.83
2018-06-27T23:35:00.790Z,72.33
2018-06-27T23:37:30.797Z,71.95
2018-06-27T23:40:00.664Z,72.23
2018-06-27T23:42:31.263Z,71.86
2018-06-27T23:45:01.449Z,72.58
2018-06-27T23:47:32.328Z,71.78
2018-06-27T23:50:02.737Z,72.25
2018-06-27T23:52:32.719Z,72.32
2018-06-27T23:55:03.269Z,71.82
2018-06-27T23:57:33.949Z,72.61
